Albuquerque, NM

11:54 PM MDT on April 28, 2017 (GMT -0600)
Siesta Hills | | Change Station

Elev 5338 ft 35.05 °N, 106.58 °W | Updated 7 minutes ago

Overcast
Overcast
38.6 °F
Feels Like 39 °F
N
0.0
Wind Variable Wind from ENE
Gusts 0.0 mph

Today
High -- | Low -- °F
--% Chance of Precip.
Yesterday
High -- | Low -- °F
Precip. -- in
Pressure 29.82 in
Visibility 10.0 miles
Clouds Few 3000 ft
Mostly Cloudy 4500 ft
Overcast 7000 ft
Windchill 39 °F
Dew Point 34 °F
Humidity 83%
Rainfall 0.18 in
Snow Depth Not available.
6:18 AM 7:49 PM
Waxing Crescent, 11% visible
METAR KABQ 290552Z 14005KT 10SM FEW030 BKN045 OVC070 04/01 A2985 RMK AO2 SLP097 MTNS OBSC NE-SE 60003 T00390011 10056 20039 50013
Pressure 29.82 in
Visibility 10.0 miles
Clouds Few 3000 ft
Mostly Cloudy 4500 ft
Overcast 7000 ft
Windchill 39 °F
Dew Point 34 °F
Humidity 83%
Rainfall 0.18 in
Snow Depth Not available.
6:18 AM 7:49 PM
Waxing Crescent, 11% visible
METAR KABQ 290552Z 14005KT 10SM FEW030 BKN045 OVC070 04/01 A2985 RMK AO2 SLP097 MTNS OBSC NE-SE 60003 T00390011 10056 20039 50013

Get Severe Weather Alerts

Thanks for signing up!

Be on the lookout for a verification email in your inbox.

You'll start receiving the daily forecast at 8 AM.

×

10-Day Weather Forecast

Almanac

Astronomy

Apr. 28, 2017 Rise Set
Actual Time
Civil Twilight
Nautical Twilight
Astronomical Twilight
Moon
Length of Visible Light
Length of Day
Tomorrow will be .
, % of the Moon is Illuminated

Today's Extremes

State Highs State Lows

Community

WunderPhotos

WunderBlog® & News

Nearby

Air Quality

  Air Quality AQ Index Pollutant
Not available.

Snow Depth

Station Depth Elevation

Earthquake Activity

City Distance Mag. Time & Date
Minimum magnitude displayed is 2.5.

Coastal Water Temperatures

Place Temperature

Stations

Nearby Weather Stations

Station Location Temp. Windchill Dew Point Humidity Wind Precip. Elev Updated Type
                   

Watches & Warnings

There are currently no watches in effect.